Audrey — PD9331 — position and weather

sailwx.info

Track history (hours):
 
Tides and Currents Weather Stations Pressure Air Temp Water Temp Dewpoint Dewpoint Depression Visibility Wind Speed Wind Dir Waves Ship Positions

Audrey

Last reported at 2016-Feb-08 16:31 UTC. Time now 2016-Feb-12 03:40 UTC.
Position N 48°41' E 007°55'.

Length 85 m; draft 2 m.

Type: Other ship. MMSI: 244660106.

Date/timePositionNaut miles runAvg speedWind from/ knotsBaromVisibWave heightAir tempDewpointWater temp
2016-Feb-08 16:31N 48°41' E 007°55'2 2.5
2016-Feb-08 15:33N 48°43' E 007°57'18 4.4
2016-Feb-08 11:25N 48°58' E 008°13'4 4.4
2016-Feb-08 10:33N 49°00' E 008°17'4 4.4
2016-Feb-08 09:33N 49°04' E 008°20'4 4.2
2016-Feb-08 08:33N 49°08' E 008°22'4 4.1
2016-Feb-08 07:32N 49°12' E 008°23'4 4.1
2016-Feb-08 06:33N 49°16' E 008°26'3 3.1
2016-Feb-08 05:33N 49°19' E 008°28'105 2.3
2016-Feb-06 07:27N 50°48' E 007°02'3 3.3
2016-Feb-06 06:30N 50°51' E 007°00'3 2.5
2016-Feb-06 05:30N 50°54' E 007°00'4 4.1
2016-Feb-06 04:31N 50°58' E 006°59'15 1.2
2016-Feb-05 16:04N 51°11' E 006°48'2 4.8
2016-Feb-05 15:34N 51°11' E 006°44'3 2.7
2016-Feb-05 14:33N 51°14' E 006°46'4 4.1
2016-Feb-05 13:33N 51°17' E 006°43'4 3.9
2016-Feb-05 12:33N 51°21' E 006°40'4 3.7
2016-Feb-05 11:31N 51°24' E 006°44'4 4.4
2016-Feb-05 10:32N 51°28' E 006°43'3 3.0
2016-Feb-05 09:33N 51°31' E 006°43'4 4.4
2016-Feb-05 08:33N 51°35' E 006°40'4 3.6
2016-Feb-05 07:33N 51°37' E 006°35'4 3.5
2016-Feb-05 06:33N 51°40' E 006°32'4 4.2
2016-Feb-05 05:33N 51°42' E 006°27'4 3.7
2016-Feb-05 04:30N 51°45' E 006°22'3 3.1
2016-Feb-05 03:33N 51°47' E 006°19'0 0.0
2016-Feb-05 02:33N 51°47' E 006°19'0 0.0
2016-Feb-05 01:33N 51°47' E 006°19'0 0.0
2016-Feb-05 00:33N 51°47' E 006°19'0 0.0
2016-Feb-04 23:33N 51°47' E 006°19'0 0.0
2016-Feb-04 22:33N 51°47' E 006°19'0 0.0
2016-Feb-04 21:33N 51°47' E 006°19'0 0.0
2016-Feb-04 20:33N 51°47' E 006°19'0 0.0
2016-Feb-04 19:33N 51°47' E 006°19'0 0.0
2016-Feb-04 18:33N 51°47' E 006°19'2 1.4
2016-Feb-04 17:30N 51°49' E 006°17'6 4.9
2016-Feb-04 16:11N 51°51' E 006°08'4 5.3
2016-Feb-04 15:23N 51°53' E 006°02'8 4.2
2016-Feb-04 13:27N 51°52' E 005°48'5 5.9
2016-Feb-04 12:32N 51°54' E 005°40'6 5.8
2016-Feb-04 11:27N 51°53' E 005°29'5 5.4
2016-Feb-04 10:32N 51°50' E 005°24'4 4.4
2016-Feb-04 09:33N 51°49' E 005°17'6 5.7
2016-Feb-04 08:33N 51°49' E 005°07'6 6.2
2016-Feb-04 07:30N 51°49' E 004°57'6 6.7
2016-Feb-04 06:33N 51°49' E 004°47'6 6.2
2016-Feb-04 05:33N 51°46' E 004°38'1 0.7
2016-Feb-04 04:33N 51°46' E 004°37'0 0.0
2016-Feb-04 03:33N 51°46' E 004°37'0 0.0
2016-Feb-04 02:33N 51°46' E 004°37'0 0.0
2016-Feb-04 01:33N 51°46' E 004°37'0 0.0
2016-Feb-04 00:33N 51°46' E 004°37'0 0.0
2016-Feb-03 23:33N 51°46' E 004°37'0 0.0
2016-Feb-03 22:33N 51°46' E 004°37'0 0.0
2016-Feb-03 21:33N 51°46' E 004°37'0 0.0
2016-Feb-03 20:33N 51°46' E 004°37'0 0.0
2016-Feb-03 19:33N 51°46' E 004°37'0 0.0
2016-Feb-03 18:33N 51°46' E 004°37'0 0.0
2016-Feb-03 17:33N 51°46' E 004°37'0 0.0
2016-Feb-03 16:33N 51°46' E 004°37'0 0.0
2016-Feb-03 15:33N 51°46' E 004°37'0 0.0
2016-Feb-03 14:33N 51°46' E 004°37'0 0.0
2016-Feb-03 13:33N 51°46' E 004°37'0 0.0
2016-Feb-03 12:33N 51°46' E 004°37'0 0.0
2016-Feb-03 11:33N 51°46' E 004°37'4 3.5
2016-Feb-03 10:33N 51°42' E 004°35'7 6.6
2016-Feb-03 09:31N 51°41' E 004°25'7 6.6
2016-Feb-03 08:29N 51°38' E 004°15'7 7.1
2016-Feb-03 07:33N 51°32' E 004°14'5 4.7
2016-Feb-03 06:33N 51°27' E 004°14'6 6.0
2016-Feb-03 05:30N 51°21' E 004°18'0 0.4
2016-Feb-03 04:33N 51°21' E 004°18'0 0.0
2016-Feb-03 03:33N 51°21' E 004°18'0 0.0
2016-Feb-03 02:33N 51°21' E 004°18'0 0.0
2016-Feb-03 01:33N 51°21' E 004°18'0 0.0
2016-Feb-03 00:33N 51°21' E 004°18'0 0.0
2016-Feb-02 23:33N 51°21' E 004°18'1 0.1
2016-Feb-02 19:14N 51°22' E 004°17'1 0.2
2016-Feb-02 13:27N 51°21' E 004°17'0 0.5
2016-Feb-02 12:33N 51°21' E 004°17'1 0.6
2016-Feb-02 11:34N 51°20' E 004°17'4 3.9
2016-Feb-02 10:33N 51°17' E 004°20'1 0.8
2016-Feb-02 09:33N 51°16' E 004°21'2 1.9
2016-Feb-02 08:33N 51°15' E 004°23'0 0.0
2016-Feb-02 07:33N 51°15' E 004°23'0 0.0
2016-Feb-02 06:33N 51°15' E 004°23'0 0.0
2016-Feb-02 05:33N 51°15' E 004°23'0 0.0
2016-Feb-02 04:33N 51°15' E 004°23'0 0.0
2016-Feb-02 03:33N 51°15' E 004°23'0 0.0
2016-Feb-02 02:33N 51°15' E 004°23'0 0.0
2016-Feb-02 01:33N 51°15' E 004°23'0 0.0
2016-Feb-02 00:33N 51°15' E 004°23'0 0.0
2016-Feb-01 23:33N 51°15' E 004°23'0 0.0
2016-Feb-01 22:33N 51°15' E 004°23'0 0.0
2016-Feb-01 21:33N 51°15' E 004°23'0 0.0
2016-Feb-01 20:33N 51°15' E 004°23'0 0.0
2016-Feb-01 19:33N 51°15' E 004°23'0 0.0
2016-Feb-01 18:33N 51°15' E 004°23'0 0.0
2016-Feb-01 17:33N 51°15' E 004°23'0 0.1
2016-Feb-01 16:33N 51°15' E 004°23'0 0.0
2016-Feb-01 15:33N 51°15' E 004°23'6 5.9
2016-Feb-01 14:33N 51°20' E 004°18'7 7.4
2016-Feb-01 13:33N 51°27' E 004°14'4 4.2
2016-Feb-01 12:33N 51°31' E 004°13'7 7.5
2016-Feb-01 11:33N 51°38' E 004°16'6 6.2
2016-Feb-01 10:32N 51°41' E 004°25'3 3.5
2016-Feb-01 09:33N 51°42' E 004°30'8 8.5
2016-Feb-01 08:33N 51°44' E 004°43'9 8.5
2016-Feb-01 07:33N 51°49' E 004°54'9 9.1
2016-Feb-01 06:33N 51°49' E 005°09'9 8.6
2016-Feb-01 05:33N 51°49' E 005°23'11 0.9
2016-Jan-31 17:31N 51°54' E 005°38'21 9.3
2016-Jan-31 15:16N 51°50' E 006°11'19 9.0
2016-Jan-31 13:06N 51°38' E 006°35'4 7.8
2016-Jan-31 12:33N 51°35' E 006°40'16 7.8
2016-Jan-31 10:32N 51°19' E 006°44'7 7.6
2016-Jan-31 09:33N 51°12' E 006°44'7 7.2
2016-Jan-31 08:33N 51°07' E 006°53'9 8.7
2016-Jan-31 07:28N 50°59' E 006°60'7 7.7
2016-Jan-31 06:32N 50°52' E 007°01'106 4.5
2016-Jan-30 07:08N 49°22' E 008°30'5 8.2
2016-Jan-30 06:33N 49°17' E 008°29'1010.3
2016-Jan-30 05:33N 49°08' E 008°22'  
Track history (hours):
 
Tides and Currents Weather Stations Pressure Air Temp Water Temp Dewpoint Dewpoint Depression Visibility Wind Speed Wind Dir Waves Ship Positions

Audrey

Last reported at 2016-Feb-08 16:31 UTC. Time now 2016-Feb-12 03:40 UTC.
Position N 48°41' E 007°55'.

Length 85 m; draft 2 m.

Type: Other ship. MMSI: 244660106.

Date/timePositionNaut miles runAvg speedWind from/ knotsBaromVisibWave heightAir tempDewpointWater temp
2016-Feb-08 16:31N 48°41' E 007°55'2 2.5
2016-Feb-08 15:33N 48°43' E 007°57'18 4.4
2016-Feb-08 11:25N 48°58' E 008°13'4 4.4
2016-Feb-08 10:33N 49°00' E 008°17'4 4.4
2016-Feb-08 09:33N 49°04' E 008°20'4 4.2
2016-Feb-08 08:33N 49°08' E 008°22'4 4.1
2016-Feb-08 07:32N 49°12' E 008°23'4 4.1
2016-Feb-08 06:33N 49°16' E 008°26'3 3.1
2016-Feb-08 05:33N 49°19' E 008°28'105 2.3
2016-Feb-06 07:27N 50°48' E 007°02'3 3.3
2016-Feb-06 06:30N 50°51' E 007°00'3 2.5
2016-Feb-06 05:30N 50°54' E 007°00'4 4.1
2016-Feb-06 04:31N 50°58' E 006°59'15 1.2
2016-Feb-05 16:04N 51°11' E 006°48'2 4.8
2016-Feb-05 15:34N 51°11' E 006°44'3 2.7
2016-Feb-05 14:33N 51°14' E 006°46'4 4.1
2016-Feb-05 13:33N 51°17' E 006°43'4 3.9
2016-Feb-05 12:33N 51°21' E 006°40'4 3.7
2016-Feb-05 11:31N 51°24' E 006°44'4 4.4
2016-Feb-05 10:32N 51°28' E 006°43'3 3.0
2016-Feb-05 09:33N 51°31' E 006°43'4 4.4
2016-Feb-05 08:33N 51°35' E 006°40'4 3.6
2016-Feb-05 07:33N 51°37' E 006°35'4 3.5
2016-Feb-05 06:33N 51°40' E 006°32'4 4.2
2016-Feb-05 05:33N 51°42' E 006°27'4 3.7
2016-Feb-05 04:30N 51°45' E 006°22'3 3.1
2016-Feb-05 03:33N 51°47' E 006°19'0 0.0
2016-Feb-05 02:33N 51°47' E 006°19'0 0.0
2016-Feb-05 01:33N 51°47' E 006°19'0 0.0
2016-Feb-05 00:33N 51°47' E 006°19'0 0.0
2016-Feb-04 23:33N 51°47' E 006°19'0 0.0
2016-Feb-04 22:33N 51°47' E 006°19'0 0.0
2016-Feb-04 21:33N 51°47' E 006°19'0 0.0
2016-Feb-04 20:33N 51°47' E 006°19'0 0.0
2016-Feb-04 19:33N 51°47' E 006°19'0 0.0
2016-Feb-04 18:33N 51°47' E 006°19'2 1.4
2016-Feb-04 17:30N 51°49' E 006°17'6 4.9
2016-Feb-04 16:11N 51°51' E 006°08'4 5.3
2016-Feb-04 15:23N 51°53' E 006°02'8 4.2
2016-Feb-04 13:27N 51°52' E 005°48'5 5.9
2016-Feb-04 12:32N 51°54' E 005°40'6 5.8
2016-Feb-04 11:27N 51°53' E 005°29'5 5.4
2016-Feb-04 10:32N 51°50' E 005°24'4 4.4
2016-Feb-04 09:33N 51°49' E 005°17'6 5.7
2016-Feb-04 08:33N 51°49' E 005°07'6 6.2
2016-Feb-04 07:30N 51°49' E 004°57'6 6.7
2016-Feb-04 06:33N 51°49' E 004°47'6 6.2
2016-Feb-04 05:33N 51°46' E 004°38'1 0.7
2016-Feb-04 04:33N 51°46' E 004°37'0 0.0
2016-Feb-04 03:33N 51°46' E 004°37'0 0.0
2016-Feb-04 02:33N 51°46' E 004°37'0 0.0
2016-Feb-04 01:33N 51°46' E 004°37'0 0.0
2016-Feb-04 00:33N 51°46' E 004°37'0 0.0
2016-Feb-03 23:33N 51°46' E 004°37'0 0.0
2016-Feb-03 22:33N 51°46' E 004°37'0 0.0
2016-Feb-03 21:33N 51°46' E 004°37'0 0.0
2016-Feb-03 20:33N 51°46' E 004°37'0 0.0
2016-Feb-03 19:33N 51°46' E 004°37'0 0.0
2016-Feb-03 18:33N 51°46' E 004°37'0 0.0
2016-Feb-03 17:33N 51°46' E 004°37'0 0.0
2016-Feb-03 16:33N 51°46' E 004°37'0 0.0
2016-Feb-03 15:33N 51°46' E 004°37'0 0.0
2016-Feb-03 14:33N 51°46' E 004°37'0 0.0
2016-Feb-03 13:33N 51°46' E 004°37'0 0.0
2016-Feb-03 12:33N 51°46' E 004°37'0 0.0
2016-Feb-03 11:33N 51°46' E 004°37'4 3.5
2016-Feb-03 10:33N 51°42' E 004°35'7 6.6
2016-Feb-03 09:31N 51°41' E 004°25'7 6.6
2016-Feb-03 08:29N 51°38' E 004°15'7 7.1
2016-Feb-03 07:33N 51°32' E 004°14'5 4.7
2016-Feb-03 06:33N 51°27' E 004°14'6 6.0
2016-Feb-03 05:30N 51°21' E 004°18'0 0.4
2016-Feb-03 04:33N 51°21' E 004°18'0 0.0
2016-Feb-03 03:33N 51°21' E 004°18'0 0.0
2016-Feb-03 02:33N 51°21' E 004°18'0 0.0
2016-Feb-03 01:33N 51°21' E 004°18'0 0.0
2016-Feb-03 00:33N 51°21' E 004°18'0 0.0
2016-Feb-02 23:33N 51°21' E 004°18'1 0.1
2016-Feb-02 19:14N 51°22' E 004°17'1 0.2
2016-Feb-02 13:27N 51°21' E 004°17'0 0.5
2016-Feb-02 12:33N 51°21' E 004°17'1 0.6
2016-Feb-02 11:34N 51°20' E 004°17'4 3.9
2016-Feb-02 10:33N 51°17' E 004°20'1 0.8
2016-Feb-02 09:33N 51°16' E 004°21'2 1.9
2016-Feb-02 08:33N 51°15' E 004°23'0 0.0
2016-Feb-02 07:33N 51°15' E 004°23'0 0.0
2016-Feb-02 06:33N 51°15' E 004°23'0 0.0
2016-Feb-02 05:33N 51°15' E 004°23'0 0.0
2016-Feb-02 04:33N 51°15' E 004°23'0 0.0
2016-Feb-02 03:33N 51°15' E 004°23'0 0.0
2016-Feb-02 02:33N 51°15' E 004°23'0 0.0
2016-Feb-02 01:33N 51°15' E 004°23'0 0.0
2016-Feb-02 00:33N 51°15' E 004°23'0 0.0
2016-Feb-01 23:33N 51°15' E 004°23'0 0.0
2016-Feb-01 22:33N 51°15' E 004°23'0 0.0
2016-Feb-01 21:33N 51°15' E 004°23'0 0.0
2016-Feb-01 20:33N 51°15' E 004°23'0 0.0
2016-Feb-01 19:33N 51°15' E 004°23'0 0.0
2016-Feb-01 18:33N 51°15' E 004°23'0 0.0
2016-Feb-01 17:33N 51°15' E 004°23'0 0.1
2016-Feb-01 16:33N 51°15' E 004°23'0 0.0
2016-Feb-01 15:33N 51°15' E 004°23'6 5.9
2016-Feb-01 14:33N 51°20' E 004°18'7 7.4
2016-Feb-01 13:33N 51°27' E 004°14'4 4.2
2016-Feb-01 12:33N 51°31' E 004°13'7 7.5
2016-Feb-01 11:33N 51°38' E 004°16'6 6.2
2016-Feb-01 10:32N 51°41' E 004°25'3 3.5
2016-Feb-01 09:33N 51°42' E 004°30'8 8.5
2016-Feb-01 08:33N 51°44' E 004°43'9 8.5
2016-Feb-01 07:33N 51°49' E 004°54'9 9.1
2016-Feb-01 06:33N 51°49' E 005°09'9 8.6
2016-Feb-01 05:33N 51°49' E 005°23'11 0.9
2016-Jan-31 17:31N 51°54' E 005°38'21 9.3
2016-Jan-31 15:16N 51°50' E 006°11'19 9.0
2016-Jan-31 13:06N 51°38' E 006°35'4 7.8
2016-Jan-31 12:33N 51°35' E 006°40'16 7.8
2016-Jan-31 10:32N 51°19' E 006°44'7 7.6
2016-Jan-31 09:33N 51°12' E 006°44'7 7.2
2016-Jan-31 08:33N 51°07' E 006°53'9 8.7
2016-Jan-31 07:28N 50°59' E 006°60'7 7.7
2016-Jan-31 06:32N 50°52' E 007°01'106 4.5
2016-Jan-30 07:08N 49°22' E 008°30'5 8.2
2016-Jan-30 06:33N 49°17' E 008°29'1010.3
2016-Jan-30 05:33N 49°08' E 008°22'  

Dump ship's entire track history